Aegean Navigator — SWBI — position and weather

sailwx.info

Track history (hours):
 
Tides and Currents Weather Stations Pressure Air Temp Water Temp Dewpoint Dewpoint Depression Visibility Wind Speed Wind Dir Waves Ship Positions

Aegean Navigator

Last reported at 2015-Jan-29 21:25 UTC. Time now 2015-Jan-31 10:09 UTC.
Position N 36°35' E 015°13'.

Length 274 m; draft 9 m.

Type: Tanker. MMSI: 240634000.

Date/timePositionNaut miles runAvg speedWind from/ knotsBaromVisibWave heightAir tempDewpointWater temp
2015-Jan-29 21:25N 36°35' E 015°13'1110.6
2015-Jan-29 20:24N 36°35' E 014°60'910.4
2015-Jan-29 19:32N 36°35' E 014°49'1110.9
2015-Jan-29 18:34N 36°35' E 014°35'1111.0
2015-Jan-29 17:34N 36°35' E 014°22'1110.8
2015-Jan-29 16:34N 36°35' E 014°08'1110.7
2015-Jan-29 15:34N 36°36' E 013°55'1110.9
2015-Jan-29 14:34N 36°39' E 013°42'1311.0
2015-Jan-29 13:25N 36°42' E 013°27'  
2015-Jan-27 01:20N 36°37' E 000°22'27610.7
2015-Jan-25 23:34N 35°59' W 005°17'  
2015-Jan-20 06:29N 37°29' W 009°45'1310.7
2015-Jan-20 05:15N 37°42' W 009°49'2010.2
2015-Jan-20 03:14N 38°02' W 009°55'710.0
2015-Jan-20 02:30N 38°09' W 009°57'10 9.9
2015-Jan-20 01:31N 38°19' W 009°60'1010.0
2015-Jan-20 00:34N 38°28' W 010°03'1110.2
2015-Jan-19 23:31N 38°38' W 010°05'1010.3
2015-Jan-19 22:33N 38°48' W 010°06'1110.2
2015-Jan-19 21:30N 38°59' W 010°06'  
Track history (hours):
 
Tides and Currents Weather Stations Pressure Air Temp Water Temp Dewpoint Dewpoint Depression Visibility Wind Speed Wind Dir Waves Ship Positions

Aegean Navigator

Last reported at 2015-Jan-29 21:25 UTC. Time now 2015-Jan-31 10:09 UTC.
Position N 36°35' E 015°13'.

Length 274 m; draft 9 m.

Type: Tanker. MMSI: 240634000.

Date/timePositionNaut miles runAvg speedWind from/ knotsBaromVisibWave heightAir tempDewpointWater temp
2015-Jan-29 21:25N 36°35' E 015°13'1110.6
2015-Jan-29 20:24N 36°35' E 014°60'910.4
2015-Jan-29 19:32N 36°35' E 014°49'1110.9
2015-Jan-29 18:34N 36°35' E 014°35'1111.0
2015-Jan-29 17:34N 36°35' E 014°22'1110.8
2015-Jan-29 16:34N 36°35' E 014°08'1110.7
2015-Jan-29 15:34N 36°36' E 013°55'1110.9
2015-Jan-29 14:34N 36°39' E 013°42'1311.0
2015-Jan-29 13:25N 36°42' E 013°27'  
2015-Jan-27 01:20N 36°37' E 000°22'27610.7
2015-Jan-25 23:34N 35°59' W 005°17'  
2015-Jan-20 06:29N 37°29' W 009°45'1310.7
2015-Jan-20 05:15N 37°42' W 009°49'2010.2
2015-Jan-20 03:14N 38°02' W 009°55'710.0
2015-Jan-20 02:30N 38°09' W 009°57'10 9.9
2015-Jan-20 01:31N 38°19' W 009°60'1010.0
2015-Jan-20 00:34N 38°28' W 010°03'1110.2
2015-Jan-19 23:31N 38°38' W 010°05'1010.3
2015-Jan-19 22:33N 38°48' W 010°06'1110.2
2015-Jan-19 21:30N 38°59' W 010°06'  

Dump ship's entire track history